createdAt,value
2018-05-18T00:00:19.500Z,81.3
2018-05-18T00:01:20.168Z,81.4
2018-05-18T00:02:20.834Z,81.7
2018-05-18T00:03:21.501Z,81.7
2018-05-18T00:04:22.169Z,81.5
2018-05-18T00:05:22.842Z,81.8
2018-05-18T00:06:23.507Z,81.8
2018-05-18T00:07:24.216Z,81.4
2018-05-18T00:08:24.881Z,81.6
2018-05-18T00:09:25.555Z,81.4
2018-05-18T00:10:26.216Z,82.0
2018-05-18T00:11:26.884Z,81.4
2018-05-18T00:12:27.552Z,81.5
2018-05-18T00:13:28.221Z,81.1
2018-05-18T00:14:28.887Z,81.1
2018-05-18T00:15:29.554Z,81.3
2018-05-18T00:16:30.222Z,81.2
2018-05-18T00:17:30.890Z,81.0
2018-05-18T00:18:31.559Z,80.8
2018-05-18T00:19:32.229Z,80.8
2018-05-18T00:20:32.943Z,81.0
2018-05-18T00:21:33.612Z,80.9
2018-05-18T00:22:34.280Z,80.9
2018-05-18T00:23:34.947Z,81.0
2018-05-18T00:24:35.614Z,80.9
2018-05-18T00:25:36.280Z,81.0
2018-05-18T00:26:36.952Z,80.9
2018-05-18T00:27:37.613Z,81.2
2018-05-18T00:28:38.292Z,81.0
2018-05-18T00:29:38.949Z,81.0
2018-05-18T00:30:39.618Z,81.5
2018-05-18T00:31:40.289Z,81.2
2018-05-18T00:32:40.953Z,81.0
2018-05-18T00:33:41.620Z,81.0
2018-05-18T00:34:42.288Z,80.5
2018-05-18T00:35:42.955Z,80.3
2018-05-18T00:36:43.623Z,80.3
2018-05-18T00:37:44.289Z,80.4
2018-05-18T00:38:44.956Z,80.9
2018-05-18T00:39:45.622Z,80.9
2018-05-18T00:40:46.292Z,80.9
2018-05-18T00:41:46.961Z,80.5
2018-05-18T00:42:47.629Z,80.8
2018-05-18T00:43:48.295Z,80.8
2018-05-18T00:44:48.963Z,81.1
2018-05-18T00:45:49.630Z,81.0
2018-05-18T00:46:50.299Z,81.1
2018-05-18T00:47:50.965Z,80.7
2018-05-18T00:48:51.632Z,81.0
2018-05-18T00:49:52.299Z,80.5
2018-05-18T00:50:52.966Z,80.7
2018-05-18T00:51:53.632Z,80.7
2018-05-18T00:52:54.301Z,80.6
2018-05-18T00:53:54.970Z,80.8
2018-05-18T00:54:55.637Z,80.3
2018-05-18T00:55:56.305Z,80.3
2018-05-18T00:56:56.971Z,80.1
2018-05-18T00:57:57.640Z,80.3
2018-05-18T00:58:58.308Z,80.2
2018-05-18T00:59:58.978Z,80.4
2018-05-18T01:00:59.643Z,80.2
2018-05-18T01:02:00.310Z,80.2
2018-05-18T01:03:00.980Z,80.4
2018-05-18T01:04:01.645Z,80.1
2018-05-18T01:05:02.314Z,80.3
2018-05-18T01:06:02.983Z,80.3
2018-05-18T01:07:03.650Z,80.2
2018-05-18T01:08:04.319Z,81.0
2018-05-18T01:09:04.984Z,80.6
2018-05-18T01:10:05.652Z,80.3
2018-05-18T01:11:06.320Z,80.1
2018-05-18T01:12:06.988Z,80.7
2018-05-18T01:13:07.654Z,80.9
2018-05-18T01:14:08.322Z,81.0
2018-05-18T01:15:08.988Z,81.1
2018-05-18T01:16:09.657Z,80.7
2018-05-18T01:17:10.325Z,81.0
2018-05-18T01:18:10.993Z,80.8
2018-05-18T01:19:11.692Z,80.5
2018-05-18T01:20:12.327Z,80.8
2018-05-18T01:21:12.994Z,80.7
2018-05-18T01:22:13.662Z,80.7
2018-05-18T01:23:14.330Z,80.8
2018-05-18T01:24:15.001Z,81.0
2018-05-18T01:25:15.664Z,80.7
2018-05-18T01:26:16.332Z,80.8
2018-05-18T01:27:16.999Z,81.0
2018-05-18T01:28:17.704Z,81.0
2018-05-18T01:29:18.379Z,81.1
2018-05-18T01:30:19.042Z,81.0
2018-05-18T01:31:19.711Z,80.7
2018-05-18T01:32:20.380Z,80.7
2018-05-18T01:33:21.046Z,80.8
2018-05-18T01:34:21.713Z,81.0
2018-05-18T01:35:22.381Z,81.5
2018-05-18T01:36:23.099Z,80.9
2018-05-18T01:37:23.766Z,80.9
2018-05-18T01:38:24.433Z,80.9
2018-05-18T01:39:25.101Z,80.3
2018-05-18T01:40:25.770Z,80.7
2018-05-18T01:41:26.478Z,80.8
2018-05-18T01:42:27.145Z,80.7
2018-05-18T01:43:27.813Z,81.1
2018-05-18T01:44:28.480Z,80.6
2018-05-18T01:45:29.145Z,80.8
2018-05-18T01:46:29.814Z,80.4
2018-05-18T01:47:30.482Z,80.3
2018-05-18T01:48:31.149Z,80.3
2018-05-18T01:49:31.816Z,80.3
2018-05-18T01:50:32.484Z,80.3
2018-05-18T01:51:33.150Z,80.2
2018-05-18T01:52:33.818Z,80.5
2018-05-18T01:53:34.494Z,80.6
2018-05-18T01:54:35.156Z,80.4
2018-05-18T01:55:35.822Z,80.3
2018-05-18T01:56:36.488Z,80.6
2018-05-18T01:57:37.156Z,80.4
2018-05-18T01:58:37.824Z,80.4
2018-05-18T01:59:38.491Z,80.3
2018-05-18T02:00:39.157Z,80.2
2018-05-18T02:01:39.824Z,80.2
2018-05-18T02:02:40.493Z,80.3
2018-05-18T02:03:41.160Z,80.6
2018-05-18T02:04:41.827Z,80.4
2018-05-18T02:05:42.497Z,80.5
2018-05-18T02:06:43.166Z,80.0
2018-05-18T02:07:43.833Z,80.2
2018-05-18T02:08:44.499Z,80.1
2018-05-18T02:09:45.166Z,80.3
2018-05-18T02:10:45.833Z,80.0
2018-05-18T02:11:46.500Z,80.4
2018-05-18T02:12:47.167Z,80.1
2018-05-18T02:13:47.834Z,79.7
2018-05-18T02:14:48.501Z,79.7
2018-05-18T02:15:49.168Z,79.7
2018-05-18T02:16:49.837Z,79.7
2018-05-18T02:17:50.504Z,79.8
2018-05-18T02:18:51.175Z,79.7
2018-05-18T02:19:51.841Z,79.7
2018-05-18T02:20:52.507Z,79.7
2018-05-18T02:21:53.225Z,79.4
2018-05-18T02:22:53.892Z,79.7
2018-05-18T02:23:54.560Z,80.1
2018-05-18T02:24:55.227Z,79.8
2018-05-18T02:25:55.893Z,80.0
2018-05-18T02:26:56.604Z,80.3
2018-05-18T02:27:57.265Z,80.1
2018-05-18T02:28:57.932Z,80.4
2018-05-18T02:29:58.602Z,80.3
2018-05-18T02:30:59.275Z,80.4
2018-05-18T02:31:59.939Z,80.8
2018-05-18T02:33:00.605Z,80.7
2018-05-18T02:34:01.329Z,80.7
2018-05-18T02:35:01.940Z,80.7
2018-05-18T02:36:02.607Z,80.7
2018-05-18T02:37:03.273Z,80.5
2018-05-18T02:38:03.940Z,80.7
2018-05-18T02:39:04.607Z,80.9
2018-05-18T02:40:05.271Z,81.4
2018-05-18T02:41:05.974Z,81.2
2018-05-18T02:42:06.644Z,81.0
2018-05-18T02:43:07.344Z,81.0
2018-05-18T02:44:08.011Z,81.1
2018-05-18T02:45:08.676Z,81.5
2018-05-18T02:46:09.341Z,81.4
2018-05-18T02:47:10.007Z,81.9
2018-05-18T02:48:10.672Z,81.6
2018-05-18T02:49:11.340Z,81.5
2018-05-18T02:50:12.007Z,81.4
2018-05-18T02:51:12.675Z,81.4
2018-05-18T02:52:13.392Z,81.8
2018-05-18T02:53:14.063Z,81.2
2018-05-18T02:54:14.724Z,81.4
2018-05-18T02:55:15.393Z,81.5
2018-05-18T02:56:16.055Z,82.0
2018-05-18T02:57:16.721Z,81.9
2018-05-18T02:58:17.386Z,81.3
2018-05-18T02:59:18.052Z,81.7
2018-05-18T03:00:18.719Z,81.3
2018-05-18T03:01:19.420Z,81.3
2018-05-18T03:02:20.087Z,81.2
2018-05-18T03:03:20.750Z,81.7
2018-05-18T03:04:21.416Z,81.9
2018-05-18T03:05:22.081Z,81.6
2018-05-18T03:06:22.750Z,81.2
2018-05-18T03:07:23.414Z,81.6
2018-05-18T03:08:24.117Z,81.4
2018-05-18T03:09:24.786Z,81.3
2018-05-18T03:10:25.453Z,81.7
2018-05-18T03:11:26.122Z,81.5
2018-05-18T03:12:26.787Z,81.5
2018-05-18T03:13:27.453Z,81.6
2018-05-18T03:14:28.118Z,81.6
2018-05-18T03:15:28.786Z,81.7
2018-05-18T03:16:29.489Z,81.5
2018-05-18T03:17:30.156Z,81.7
2018-05-18T03:18:30.825Z,81.5
2018-05-18T03:19:31.492Z,81.5
2018-05-18T03:20:32.160Z,81.4
2018-05-18T03:21:32.829Z,81.7
2018-05-18T03:22:33.493Z,81.7
2018-05-18T03:23:34.161Z,81.7
2018-05-18T03:24:34.829Z,82.0
2018-05-18T03:25:35.578Z,81.6
2018-05-18T03:26:36.167Z,81.8
2018-05-18T03:27:36.870Z,81.2
2018-05-18T03:28:37.542Z,81.6
2018-05-18T03:29:38.205Z,81.6
2018-05-18T03:30:38.874Z,81.7
2018-05-18T03:31:39.579Z,82.0
2018-05-18T03:32:40.247Z,81.6
2018-05-18T03:33:40.914Z,81.8
2018-05-18T03:34:41.585Z,82.1
2018-05-18T03:35:42.248Z,82.1
2018-05-18T03:36:42.916Z,82.0
2018-05-18T03:37:43.582Z,82.0
2018-05-18T03:38:44.251Z,82.1
2018-05-18T03:39:44.924Z,81.7
2018-05-18T03:40:45.588Z,81.4
2018-05-18T03:41:46.254Z,82.0
2018-05-18T03:42:46.958Z,81.9
2018-05-18T03:43:47.626Z,81.2
2018-05-18T03:44:48.293Z,81.9
2018-05-18T03:45:48.961Z,81.9
2018-05-18T03:46:49.629Z,82.1
2018-05-18T03:47:50.295Z,82.6
2018-05-18T03:48:50.961Z,82.6
2018-05-18T03:49:51.629Z,82.0
2018-05-18T03:50:52.332Z,82.5
2018-05-18T03:51:52.999Z,82.2
2018-05-18T03:52:53.717Z,82.1
2018-05-18T03:53:54.386Z,82.0
2018-05-18T03:54:55.054Z,81.3
2018-05-18T03:55:55.725Z,82.1
2018-05-18T03:56:56.390Z,82.1
2018-05-18T03:57:57.059Z,81.9
2018-05-18T03:58:57.726Z,82.1
2018-05-18T03:59:58.393Z,82.0
2018-05-18T04:00:59.061Z,82.0
2018-05-18T04:01:59.733Z,82.1
2018-05-18T04:03:00.400Z,82.0
2018-05-18T04:04:01.072Z,82.0
2018-05-18T04:05:01.773Z,82.1
2018-05-18T04:06:02.445Z,81.7
2018-05-18T04:07:03.148Z,81.3
2018-05-18T04:08:03.854Z,81.8
2018-05-18T04:09:04.523Z,81.8
2018-05-18T04:10:05.195Z,81.8
2018-05-18T04:11:05.859Z,81.8
2018-05-18T04:12:06.528Z,81.6
2018-05-18T04:13:07.198Z,81.2
2018-05-18T04:14:07.865Z,81.2
2018-05-18T04:15:08.535Z,81.9
2018-05-18T04:16:09.203Z,81.6
2018-05-18T04:17:09.871Z,82.0
2018-05-18T04:18:10.540Z,81.7
2018-05-18T04:19:11.208Z,81.4
2018-05-18T04:20:11.885Z,81.6
2018-05-18T04:21:12.544Z,81.5
2018-05-18T04:22:13.212Z,81.1
2018-05-18T04:23:13.885Z,81.5
2018-05-18T04:24:14.551Z,81.2
2018-05-18T04:25:15.219Z,81.5
2018-05-18T04:26:15.893Z,81.3
2018-05-18T04:27:16.559Z,81.3
2018-05-18T04:28:17.228Z,81.5
2018-05-18T04:29:17.897Z,80.9
2018-05-18T04:30:18.584Z,80.7
2018-05-18T04:31:19.239Z,81.1
2018-05-18T04:32:19.907Z,80.9
2018-05-18T04:33:20.577Z,80.7
2018-05-18T04:34:21.247Z,80.1
2018-05-18T04:35:21.916Z,80.1
2018-05-18T04:36:22.585Z,80.3
2018-05-18T04:37:23.254Z,80.4
2018-05-18T04:38:23.924Z,80.6
2018-05-18T04:39:24.593Z,80.0
2018-05-18T04:40:25.261Z,80.2
2018-05-18T04:41:25.932Z,79.9
2018-05-18T04:42:26.601Z,79.7
2018-05-18T04:43:27.270Z,79.8
2018-05-18T04:44:27.938Z,79.9
2018-05-18T04:45:28.607Z,79.6
2018-05-18T04:46:29.278Z,79.5
2018-05-18T04:47:29.947Z,79.5
2018-05-18T04:48:30.619Z,79.6
2018-05-18T04:49:31.288Z,79.8
2018-05-18T04:50:31.957Z,79.5
2018-05-18T04:51:32.707Z,79.6
2018-05-18T04:52:33.325Z,79.7
2018-05-18T04:53:33.995Z,79.6
2018-05-18T04:54:34.664Z,79.3
2018-05-18T04:55:35.346Z,79.7
2018-05-18T04:56:36.087Z,80.0
2018-05-18T04:57:36.678Z,79.6
2018-05-18T04:58:37.362Z,79.8
2018-05-18T04:59:38.058Z,79.8
2018-05-18T05:00:38.724Z,79.5
2018-05-18T05:01:39.393Z,79.7
2018-05-18T05:02:40.064Z,79.5
2018-05-18T05:03:40.733Z,79.4
2018-05-18T05:04:41.402Z,80.0
2018-05-18T05:05:42.073Z,79.9
2018-05-18T05:06:42.765Z,79.5
2018-05-18T05:07:43.416Z,79.7
2018-05-18T05:08:44.120Z,79.4
2018-05-18T05:09:44.789Z,79.6
2018-05-18T05:10:45.467Z,79.9
2018-05-18T05:11:46.131Z,79.7
2018-05-18T05:12:46.801Z,80.0
2018-05-18T05:13:47.473Z,79.8
2018-05-18T05:14:48.140Z,80.2
2018-05-18T05:15:48.809Z,80.0
2018-05-18T05:16:49.478Z,80.0
2018-05-18T05:17:50.154Z,79.6
2018-05-18T05:18:50.817Z,79.1
2018-05-18T05:19:51.487Z,79.4
2018-05-18T05:20:52.158Z,78.9
2018-05-18T05:21:52.828Z,78.9
2018-05-18T05:22:53.498Z,78.8
2018-05-18T05:23:54.174Z,78.8
2018-05-18T05:24:54.840Z,78.6
2018-05-18T05:25:55.510Z,78.2
2018-05-18T05:26:56.187Z,78.1
2018-05-18T05:27:56.854Z,77.8
2018-05-18T05:28:57.522Z,78.3
2018-05-18T05:29:58.193Z,78.2
2018-05-18T05:30:58.864Z,78.3
2018-05-18T05:31:59.536Z,78.6
2018-05-18T05:33:00.210Z,77.4
2018-05-18T05:34:00.877Z,76.5
2018-05-18T05:35:01.547Z,76.5
2018-05-18T05:36:02.218Z,76.2
2018-05-18T05:37:02.885Z,75.8
2018-05-18T05:38:03.558Z,76.2
2018-05-18T05:39:04.277Z,76.5
2018-05-18T05:40:04.948Z,76.5
2018-05-18T05:41:05.625Z,76.8
2018-05-18T05:42:06.332Z,76.1
2018-05-18T05:43:06.998Z,76.3
2018-05-18T05:44:07.670Z,75.8
2018-05-18T05:45:08.341Z,76.2
2018-05-18T05:46:09.012Z,75.9
2018-05-18T05:47:09.723Z,76.3
2018-05-18T05:48:10.393Z,76.0
2018-05-18T05:49:11.064Z,76.2
2018-05-18T05:50:11.735Z,76.3
2018-05-18T05:51:12.407Z,76.3
2018-05-18T05:52:13.076Z,75.9
2018-05-18T05:53:13.748Z,75.4
2018-05-18T05:54:14.418Z,75.1
2018-05-18T05:55:15.091Z,75.5
2018-05-18T05:56:15.798Z,75.6
2018-05-18T05:57:16.471Z,75.5
2018-05-18T05:58:17.140Z,75.7
2018-05-18T05:59:17.812Z,75.5
2018-05-18T06:00:18.484Z,74.8
2018-05-18T06:01:19.154Z,75.4
2018-05-18T06:02:19.825Z,75.5
2018-05-18T06:03:20.497Z,75.3
2018-05-18T06:04:21.169Z,75.4
2018-05-18T06:05:21.874Z,75.4
2018-05-18T06:06:22.515Z,75.3
2018-05-18T06:07:23.184Z,74.8
2018-05-18T06:08:23.855Z,74.8
2018-05-18T06:09:24.532Z,74.6
2018-05-18T06:10:25.199Z,74.6
2018-05-18T06:11:25.876Z,74.6
2018-05-18T06:12:26.544Z,74.2
2018-05-18T06:13:27.219Z,73.9
2018-05-18T06:14:27.890Z,72.9
2018-05-18T06:15:28.600Z,72.7
2018-05-18T06:16:29.272Z,72.4
2018-05-18T06:17:29.945Z,72.4
2018-05-18T06:18:30.617Z,72.2
2018-05-18T06:19:31.322Z,72.1
2018-05-18T06:20:31.964Z,71.5
2018-05-18T06:21:32.637Z,71.6
2018-05-18T06:22:33.309Z,71.8
2018-05-18T06:23:33.985Z,71.4
2018-05-18T06:24:34.658Z,71.9
2018-05-18T06:25:35.329Z,72.0
2018-05-18T06:26:36.001Z,71.9
2018-05-18T06:27:36.674Z,72.0
2018-05-18T06:28:37.375Z,71.8
2018-05-18T06:29:38.020Z,71.7
2018-05-18T06:30:38.694Z,72.0
2018-05-18T06:31:39.406Z,71.4
2018-05-18T06:32:40.117Z,70.6
2018-05-18T06:33:40.789Z,70.4
2018-05-18T06:34:41.464Z,70.8
2018-05-18T06:35:42.138Z,70.6
2018-05-18T06:36:42.811Z,70.6
2018-05-18T06:37:43.484Z,70.6
2018-05-18T06:38:44.158Z,70.7
2018-05-18T06:39:44.829Z,70.5
2018-05-18T06:40:45.504Z,70.2
2018-05-18T06:41:46.176Z,70.6
2018-05-18T06:42:46.850Z,70.6
2018-05-18T06:43:47.521Z,70.0
2018-05-18T06:44:48.198Z,70.0
2018-05-18T06:45:48.865Z,70.1
2018-05-18T06:46:49.635Z,69.3
2018-05-18T06:47:50.213Z,68.9
2018-05-18T06:48:50.886Z,68.9
2018-05-18T06:49:51.560Z,69.0
2018-05-18T06:50:52.233Z,69.4
2018-05-18T06:51:52.905Z,69.9
2018-05-18T06:52:53.579Z,69.9
2018-05-18T06:53:54.252Z,70.6
2018-05-18T06:54:54.925Z,69.9
2018-05-18T06:55:55.598Z,70.1
2018-05-18T06:56:56.270Z,69.8
2018-05-18T06:57:56.942Z,69.4
2018-05-18T06:58:57.617Z,69.5
2018-05-18T06:59:58.290Z,69.4
2018-05-18T07:00:58.962Z,69.4
2018-05-18T07:01:59.674Z,69.0
2018-05-18T07:03:00.348Z,69.3
2018-05-18T07:04:01.031Z,68.8
2018-05-18T07:05:01.695Z,68.8
2018-05-18T07:06:02.368Z,69.9
2018-05-18T07:07:03.041Z,69.9
2018-05-18T07:08:03.713Z,69.9
2018-05-18T07:09:04.387Z,70.0
2018-05-18T07:10:05.061Z,69.9
2018-05-18T07:11:05.734Z,70.4
2018-05-18T07:12:06.407Z,69.8
2018-05-18T07:13:07.081Z,70.2
2018-05-18T07:14:07.760Z,70.0
2018-05-18T07:15:08.455Z,70.1
2018-05-18T07:16:09.128Z,70.4
2018-05-18T07:17:09.802Z,71.0
2018-05-18T07:18:10.476Z,70.9
2018-05-18T07:19:11.150Z,70.8
2018-05-18T07:20:11.872Z,70.4
2018-05-18T07:21:12.544Z,69.8
2018-05-18T07:22:13.218Z,70.0
2018-05-18T07:23:13.890Z,70.6
2018-05-18T07:24:14.564Z,70.1
2018-05-18T07:25:15.289Z,70.0
2018-05-18T07:26:15.964Z,69.3
2018-05-18T07:27:16.684Z,69.3
2018-05-18T07:28:17.389Z,69.0
2018-05-18T07:29:18.125Z,69.3
2018-05-18T07:30:18.738Z,68.7
2018-05-18T07:31:19.408Z,68.0
2018-05-18T07:32:20.080Z,68.3
2018-05-18T07:33:20.755Z,68.3
2018-05-18T07:34:21.427Z,68.2
2018-05-18T07:35:22.102Z,68.4
2018-05-18T07:36:22.777Z,68.4
2018-05-18T07:37:23.448Z,68.4
2018-05-18T07:38:24.123Z,68.0
2018-05-18T07:39:24.797Z,67.9
2018-05-18T07:40:25.474Z,67.9
2018-05-18T07:41:26.145Z,68.1
2018-05-18T07:42:26.818Z,68.5
2018-05-18T07:43:27.493Z,68.2
2018-05-18T07:44:28.167Z,68.2
2018-05-18T07:45:28.841Z,68.0
2018-05-18T07:46:29.514Z,67.6
2018-05-18T07:47:30.225Z,67.7
2018-05-18T07:48:30.898Z,67.4
2018-05-18T07:49:31.574Z,67.0
2018-05-18T07:50:32.246Z,67.0
2018-05-18T07:51:32.920Z,67.2
2018-05-18T07:52:33.595Z,67.0
2018-05-18T07:53:34.379Z,67.3
2018-05-18T07:54:34.979Z,67.8
2018-05-18T07:55:35.653Z,67.4
2018-05-18T07:56:36.367Z,67.2
2018-05-18T07:57:37.041Z,68.2
2018-05-18T07:58:37.715Z,68.0
2018-05-18T07:59:38.478Z,67.8
2018-05-18T08:00:39.073Z,67.8
2018-05-18T08:01:39.741Z,68.0
2018-05-18T08:02:40.419Z,67.9
2018-05-18T08:03:41.090Z,67.5
2018-05-18T08:04:41.766Z,66.9
2018-05-18T08:05:42.521Z,67.0
2018-05-18T08:06:43.114Z,67.2
2018-05-18T08:07:43.871Z,67.3
2018-05-18T08:08:44.459Z,67.0
2018-05-18T08:09:45.132Z,67.0
2018-05-18T08:10:45.807Z,67.1
2018-05-18T08:11:46.484Z,66.5
2018-05-18T08:12:47.156Z,66.4
2018-05-18T08:13:47.832Z,66.3
2018-05-18T08:14:48.504Z,66.4
2018-05-18T08:15:49.178Z,66.4
2018-05-18T08:16:49.858Z,66.7
2018-05-18T08:17:50.527Z,66.7
2018-05-18T08:18:51.202Z,66.4
2018-05-18T08:19:51.876Z,66.4
2018-05-18T08:20:52.550Z,66.2
2018-05-18T08:21:53.225Z,65.8
2018-05-18T08:22:53.899Z,66.8
2018-05-18T08:23:54.573Z,68.0
2018-05-18T08:24:55.248Z,68.8
2018-05-18T08:25:55.974Z,69.3
2018-05-18T08:26:56.646Z,69.6
2018-05-18T08:27:57.320Z,69.3
2018-05-18T08:28:57.995Z,69.4
2018-05-18T08:29:58.669Z,69.6
2018-05-18T08:30:59.356Z,70.0
2018-05-18T08:32:00.018Z,70.1
2018-05-18T08:33:00.692Z,70.1
2018-05-18T08:34:01.369Z,70.3
2018-05-18T08:35:02.040Z,70.7
2018-05-18T08:36:02.714Z,71.2
2018-05-18T08:37:03.389Z,72.4
2018-05-18T08:38:04.067Z,72.3
2018-05-18T08:39:04.738Z,73.1
2018-05-18T08:40:05.412Z,73.2
2018-05-18T08:41:06.086Z,73.4
2018-05-18T08:42:06.761Z,73.5
2018-05-18T08:43:07.435Z,73.9
2018-05-18T08:44:08.109Z,73.3
2018-05-18T08:45:08.782Z,73.5
2018-05-18T08:46:09.454Z,72.9
2018-05-18T08:47:10.129Z,73.1
2018-05-18T08:48:10.804Z,73.7
2018-05-18T08:49:11.476Z,74.0
2018-05-18T08:50:12.152Z,74.0
2018-05-18T08:51:12.825Z,74.5
2018-05-18T08:52:13.496Z,74.6
2018-05-18T08:53:14.171Z,74.6
2018-05-18T08:54:14.844Z,75.0
2018-05-18T08:55:15.518Z,75.2
2018-05-18T08:56:16.193Z,75.2
2018-05-18T08:57:16.867Z,75.2
2018-05-18T08:58:17.541Z,75.0
2018-05-18T08:59:18.215Z,75.6
2018-05-18T09:00:18.888Z,75.0
2018-05-18T09:01:19.561Z,75.3
2018-05-18T09:02:20.234Z,74.3
2018-05-18T09:03:20.909Z,73.8
2018-05-18T09:04:21.584Z,73.3
2018-05-18T09:05:22.256Z,72.6
2018-05-18T09:06:22.930Z,71.7
2018-05-18T09:07:23.604Z,70.6
2018-05-18T09:08:24.278Z,70.1
2018-05-18T09:09:24.952Z,70.0
2018-05-18T09:10:25.626Z,70.1
2018-05-18T09:11:26.301Z,70.1
2018-05-18T09:12:26.975Z,70.7
2018-05-18T09:13:27.648Z,70.1
2018-05-18T09:14:28.322Z,69.6
2018-05-18T09:15:28.996Z,69.0
2018-05-18T09:16:29.670Z,68.0
2018-05-18T09:17:30.344Z,67.5
2018-05-18T09:18:31.019Z,67.7
2018-05-18T09:19:31.694Z,67.1
2018-05-18T09:20:32.368Z,67.3
2018-05-18T09:21:33.044Z,66.4
2018-05-18T09:22:33.718Z,66.8
2018-05-18T09:23:34.391Z,66.1
2018-05-18T09:24:35.065Z,65.8
2018-05-18T09:25:35.744Z,65.8
2018-05-18T09:26:36.415Z,66.0
2018-05-18T09:27:37.092Z,66.0
2018-05-18T09:28:37.764Z,65.8
2018-05-18T09:29:38.437Z,65.8
2018-05-18T09:30:39.123Z,65.7
2018-05-18T09:31:39.787Z,67.0
2018-05-18T09:32:40.463Z,67.4
2018-05-18T09:33:41.138Z,67.3
2018-05-18T09:34:41.812Z,66.8
2018-05-18T09:35:42.489Z,67.1
2018-05-18T09:36:43.167Z,66.9
2018-05-18T09:37:43.837Z,66.6
2018-05-18T09:38:44.512Z,66.4
2018-05-18T09:39:45.239Z,66.7
2018-05-18T09:40:45.936Z,65.8
2018-05-18T09:41:46.613Z,66.3
2018-05-18T09:42:47.286Z,66.6
2018-05-18T09:43:47.961Z,66.0
2018-05-18T09:44:48.637Z,65.1
2018-05-18T09:45:49.312Z,65.3
2018-05-18T09:46:49.986Z,66.0
2018-05-18T09:47:50.667Z,66.5
2018-05-18T09:48:51.338Z,67.7
2018-05-18T09:49:52.014Z,69.1
2018-05-18T09:50:52.690Z,70.0
2018-05-18T09:51:53.363Z,70.0
2018-05-18T09:52:54.040Z,69.9
2018-05-18T09:53:54.715Z,70.1
2018-05-18T09:54:55.582Z,70.0
2018-05-18T09:55:56.065Z,69.5
2018-05-18T09:56:56.739Z,69.4
2018-05-18T09:57:57.416Z,68.6
2018-05-18T09:58:58.090Z,68.3
2018-05-18T09:59:58.764Z,68.1
2018-05-18T10:00:59.440Z,67.5
2018-05-18T10:02:00.113Z,67.6
2018-05-18T10:03:00.788Z,67.6
2018-05-18T10:04:01.465Z,67.9
2018-05-18T10:05:02.138Z,68.3
2018-05-18T10:06:02.816Z,68.7
2018-05-18T10:07:03.493Z,68.9
2018-05-18T10:08:04.195Z,69.1
2018-05-18T10:09:04.873Z,69.2
2018-05-18T10:10:05.581Z,69.1
2018-05-18T10:11:06.257Z,68.9
2018-05-18T10:12:06.931Z,68.0
2018-05-18T10:13:07.606Z,68.3
2018-05-18T10:14:08.280Z,68.7
2018-05-18T10:15:08.954Z,68.6
2018-05-18T10:16:09.629Z,68.0
2018-05-18T10:17:10.304Z,67.8
2018-05-18T10:18:10.978Z,68.3
2018-05-18T10:19:11.653Z,68.0
2018-05-18T10:20:12.327Z,67.7
2018-05-18T10:21:13.002Z,67.6
2018-05-18T10:22:13.717Z,67.0
2018-05-18T10:23:14.392Z,66.6
2018-05-18T10:24:15.066Z,67.0
2018-05-18T10:25:15.741Z,67.0
2018-05-18T10:26:16.415Z,67.6
2018-05-18T10:27:17.090Z,68.3
2018-05-18T10:28:17.765Z,68.2
2018-05-18T10:29:18.442Z,68.1
2018-05-18T10:30:19.154Z,67.5
2018-05-18T10:31:19.827Z,67.2
2018-05-18T10:32:20.500Z,66.7
2018-05-18T10:33:21.176Z,66.3
2018-05-18T10:34:21.854Z,66.8
2018-05-18T10:35:22.526Z,66.3
2018-05-18T10:36:23.200Z,66.2
2018-05-18T10:37:23.874Z,66.2
2018-05-18T10:38:24.550Z,66.4
2018-05-18T10:39:25.237Z,66.9
2018-05-18T10:40:25.899Z,66.5
2018-05-18T10:41:26.574Z,67.5
2018-05-18T10:42:27.248Z,67.8
2018-05-18T10:43:27.927Z,67.3
2018-05-18T10:44:28.635Z,67.0
2018-05-18T10:45:29.345Z,67.2
2018-05-18T10:46:29.988Z,66.3
2018-05-18T10:47:30.658Z,66.4
2018-05-18T10:48:31.331Z,66.6
2018-05-18T10:49:32.028Z,66.6
2018-05-18T10:50:32.683Z,66.3
2018-05-18T10:51:33.360Z,66.1
2018-05-18T10:52:34.035Z,66.1
2018-05-18T10:53:34.709Z,65.2
2018-05-18T10:54:35.390Z,65.0
2018-05-18T10:55:36.059Z,65.6
2018-05-18T10:56:36.734Z,65.2
2018-05-18T10:57:37.409Z,64.7
2018-05-18T10:58:38.085Z,65.4
2018-05-18T10:59:38.758Z,66.0
2018-05-18T11:00:39.432Z,66.2
2018-05-18T11:01:40.108Z,66.7
2018-05-18T11:02:40.852Z,67.2
2018-05-18T11:03:41.458Z,67.6
2018-05-18T11:04:42.133Z,67.8
2018-05-18T11:05:42.807Z,67.3
2018-05-18T11:06:43.484Z,67.3
2018-05-18T11:07:44.159Z,67.3
2018-05-18T11:08:44.833Z,67.3
2018-05-18T11:09:45.507Z,68.3
2018-05-18T11:10:46.182Z,68.2
2018-05-18T11:11:46.858Z,67.5
2018-05-18T11:12:47.532Z,67.7
2018-05-18T11:13:48.205Z,67.9
2018-05-18T11:14:48.881Z,68.2
2018-05-18T11:15:49.554Z,68.6
2018-05-18T11:16:50.231Z,68.4
2018-05-18T11:17:50.909Z,68.3
2018-05-18T11:18:51.577Z,68.3
2018-05-18T11:19:52.252Z,66.6
2018-05-18T11:20:52.925Z,66.5
2018-05-18T11:21:53.604Z,67.2
2018-05-18T11:22:54.278Z,66.9
2018-05-18T11:23:54.991Z,66.3
2018-05-18T11:24:55.666Z,65.3
2018-05-18T11:25:56.341Z,66.1
2018-05-18T11:26:57.015Z,66.0
2018-05-18T11:27:57.689Z,66.2
2018-05-18T11:28:58.371Z,66.2
2018-05-18T11:29:59.079Z,65.4
2018-05-18T11:30:59.755Z,65.0
2018-05-18T11:32:00.429Z,64.9
2018-05-18T11:33:01.178Z,65.5
2018-05-18T11:34:01.777Z,65.6
2018-05-18T11:35:02.453Z,65.0
2018-05-18T11:36:03.127Z,64.9
2018-05-18T11:37:03.803Z,63.6
2018-05-18T11:38:04.478Z,63.2
2018-05-18T11:39:05.200Z,62.5
2018-05-18T11:40:05.857Z,62.6
2018-05-18T11:41:06.531Z,62.3
2018-05-18T11:42:07.208Z,60.9
2018-05-18T11:43:07.885Z,60.9
2018-05-18T11:44:08.559Z,61.0
2018-05-18T11:45:09.232Z,60.5
2018-05-18T11:46:09.907Z,60.3
2018-05-18T11:47:10.584Z,59.8
2018-05-18T11:48:11.278Z,60.0
2018-05-18T11:49:11.968Z,59.6
2018-05-18T11:50:12.644Z,58.7
2018-05-18T11:51:13.320Z,58.9
2018-05-18T11:52:14.038Z,59.7
2018-05-18T11:53:14.711Z,60.2
2018-05-18T11:54:15.422Z,61.0
2018-05-18T11:55:16.104Z,60.5
2018-05-18T11:56:16.774Z,60.8
2018-05-18T11:57:17.452Z,60.5
2018-05-18T11:58:18.129Z,60.6
2018-05-18T11:59:18.802Z,60.6
2018-05-18T12:00:19.479Z,60.9
2018-05-18T12:01:20.154Z,60.2
2018-05-18T12:02:20.883Z,60.2
2018-05-18T12:03:21.506Z,60.4
2018-05-18T12:04:22.182Z,60.4
2018-05-18T12:05:22.857Z,61.2
2018-05-18T12:06:23.535Z,60.6
2018-05-18T12:07:24.209Z,60.6
2018-05-18T12:08:24.989Z,61.2
2018-05-18T12:09:25.563Z,60.8
2018-05-18T12:10:26.234Z,60.5
2018-05-18T12:11:26.911Z,60.5
2018-05-18T12:12:27.586Z,60.6
2018-05-18T12:13:28.264Z,60.3
2018-05-18T12:14:28.939Z,60.1
2018-05-18T12:15:29.615Z,59.5
2018-05-18T12:16:30.291Z,59.4
2018-05-18T12:17:30.967Z,58.0
2018-05-18T12:18:31.643Z,58.0
2018-05-18T12:19:32.320Z,57.7
2018-05-18T12:20:32.996Z,57.5
2018-05-18T12:21:33.674Z,57.7
2018-05-18T12:22:34.350Z,57.2
2018-05-18T12:23:35.026Z,56.9
2018-05-18T12:24:35.700Z,56.8
2018-05-18T12:25:36.376Z,56.6
2018-05-18T12:26:37.051Z,55.5
2018-05-18T12:27:37.728Z,54.2
2018-05-18T12:28:38.404Z,54.9
2018-05-18T12:29:39.085Z,55.0
2018-05-18T12:30:39.756Z,55.6
2018-05-18T12:31:40.513Z,55.6
2018-05-18T12:32:41.109Z,55.3
2018-05-18T12:33:41.824Z,55.2
2018-05-18T12:34:42.500Z,55.1
2018-05-18T12:35:43.177Z,55.2
2018-05-18T12:36:43.852Z,55.7
2018-05-18T12:37:44.567Z,55.6
2018-05-18T12:38:45.245Z,56.2
2018-05-18T12:39:45.960Z,55.7
2018-05-18T12:40:46.636Z,55.7
2018-05-18T12:41:47.313Z,55.9
2018-05-18T12:42:47.988Z,56.3
2018-05-18T12:43:48.664Z,56.7
2018-05-18T12:44:49.342Z,57.2
2018-05-18T12:45:50.019Z,57.8
2018-05-18T12:46:50.701Z,57.1
2018-05-18T12:47:51.412Z,57.6
2018-05-18T12:48:52.088Z,57.6
2018-05-18T12:49:52.762Z,57.6
2018-05-18T12:50:53.440Z,57.8
2018-05-18T12:51:54.116Z,58.1
2018-05-18T12:52:54.792Z,58.0
2018-05-18T12:53:55.494Z,57.1
2018-05-18T12:54:56.143Z,57.7
2018-05-18T12:55:56.820Z,57.3
2018-05-18T12:56:57.497Z,57.1
2018-05-18T12:57:58.174Z,56.4
2018-05-18T12:58:58.850Z,56.0
2018-05-18T12:59:59.526Z,55.3
2018-05-18T13:01:00.205Z,55.2
2018-05-18T13:02:00.880Z,54.2
2018-05-18T13:03:01.594Z,54.3
2018-05-18T13:04:02.271Z,54.1
2018-05-18T13:05:02.949Z,53.6
2018-05-18T13:06:03.623Z,53.4
2018-05-18T13:07:04.301Z,53.1
2018-05-18T13:08:05.022Z,52.5
2018-05-18T13:09:05.655Z,52.3
2018-05-18T13:10:06.331Z,52.5
2018-05-18T13:11:07.008Z,53.4
2018-05-18T13:12:07.683Z,53.4
2018-05-18T13:13:08.362Z,53.7
2018-05-18T13:14:09.038Z,54.2
2018-05-18T13:15:09.753Z,54.6
2018-05-18T13:16:10.435Z,54.9
2018-05-18T13:17:11.113Z,54.6
2018-05-18T13:18:11.821Z,54.2
2018-05-18T13:19:12.498Z,54.2
2018-05-18T13:20:13.174Z,54.2
2018-05-18T13:21:13.851Z,54.4
2018-05-18T13:22:14.527Z,54.5
2018-05-18T13:23:15.204Z,55.3
2018-05-18T13:24:15.883Z,55.3
2018-05-18T13:25:16.564Z,55.1
2018-05-18T13:26:17.278Z,55.4
2018-05-18T13:27:17.951Z,56.5